createdAt,value
2022-09-24T00:00:02.528Z,9.60
2022-09-24T00:02:32.837Z,9.60
2022-09-24T00:05:01.529Z,9.60
2022-09-24T00:07:30.263Z,9.60
2022-09-24T00:10:00.414Z,9.60
2022-09-24T00:12:29.413Z,9.60
2022-09-24T00:14:57.979Z,9.60
2022-09-24T00:17:26.660Z,9.60
2022-09-24T00:19:55.305Z,9.50
2022-09-24T00:22:23.988Z,9.50
2022-09-24T00:25:10.281Z,9.50
2022-09-24T00:27:40.395Z,9.50
2022-09-24T00:30:09.851Z,9.50
2022-09-24T00:32:38.536Z,9.50
2022-09-24T00:35:07.848Z,9.50
2022-09-24T00:37:36.521Z,9.50
2022-09-24T00:40:06.177Z,9.50
2022-09-24T00:42:34.867Z,9.50
2022-09-24T00:45:05.442Z,9.50
2022-09-24T00:47:37.115Z,9.50
2022-09-24T00:50:13.149Z,9.50
2022-09-24T00:52:45.188Z,9.50
2022-09-24T00:55:15.532Z,9.50
2022-09-24T00:57:45.308Z,9.50
2022-09-24T01:00:16.426Z,9.50
2022-09-24T01:02:48.559Z,9.50
2022-09-24T01:05:17.976Z,9.50
2022-09-24T01:07:48.878Z,9.50
2022-09-24T01:10:41.073Z,9.50
2022-09-24T01:13:22.690Z,9.50
2022-09-24T01:16:00.268Z,9.50
2022-09-24T01:18:39.687Z,9.50
2022-09-24T01:21:28.295Z,9.50
2022-09-24T01:24:26.186Z,9.50
2022-09-24T01:27:03.177Z,9.50
2022-09-24T01:29:42.360Z,9.50
2022-09-24T01:32:18.948Z,9.50
2022-09-24T01:34:51.094Z,9.50
2022-09-24T01:37:24.396Z,9.50
2022-09-24T01:39:56.165Z,9.50
2022-09-24T01:42:27.419Z,9.50
2022-09-24T01:44:58.563Z,9.40
2022-09-24T01:47:34.640Z,9.50
2022-09-24T01:50:05.965Z,9.50
2022-09-24T01:52:42.485Z,9.40
2022-09-24T01:55:17.173Z,9.50
2022-09-24T01:57:50.878Z,9.50
2022-09-24T02:00:22.777Z,9.50
2022-09-24T02:02:58.004Z,9.40
2022-09-24T02:05:32.963Z,9.40
2022-09-24T02:08:08.624Z,9.40
2022-09-24T02:10:47.127Z,9.40
2022-09-24T02:13:17.956Z,9.40
2022-09-24T02:15:52.394Z,9.40
2022-09-24T02:18:26.743Z,9.40
2022-09-24T02:20:55.946Z,9.40
2022-09-24T02:23:26.097Z,9.40
2022-09-24T02:25:58.167Z,9.40
2022-09-24T02:28:27.985Z,9.40
2022-09-24T02:31:04.133Z,9.40
2022-09-24T02:33:52.072Z,9.40
2022-09-24T02:36:20.976Z,9.30
2022-09-24T02:38:49.489Z,9.30
2022-09-24T02:41:18.343Z,9.30
2022-09-24T02:43:47.580Z,9.30
2022-09-24T02:46:18.317Z,9.20
2022-09-24T02:48:46.930Z,9.30
2022-09-24T02:51:15.667Z,9.30
2022-09-24T02:53:44.399Z,9.40
2022-09-24T02:56:13.330Z,9.40
2022-09-24T02:58:43.325Z,9.40
2022-09-24T03:01:11.927Z,9.40
2022-09-24T03:03:42.150Z,9.40
2022-09-24T03:06:13.584Z,9.40
2022-09-24T03:08:42.939Z,9.50
2022-09-24T03:11:17.696Z,9.50
2022-09-24T03:13:47.512Z,9.50
2022-09-24T03:16:17.125Z,9.50
2022-09-24T03:18:48.289Z,9.50
2022-09-24T03:21:19.106Z,9.40
2022-09-24T03:23:48.515Z,9.50
2022-09-24T03:26:17.678Z,9.40
2022-09-24T03:28:46.319Z,9.50
2022-09-24T03:31:14.455Z,9.40
2022-09-24T03:33:44.601Z,9.40
2022-09-24T03:36:17.252Z,9.30
2022-09-24T03:38:48.615Z,9.30
2022-09-24T03:41:18.258Z,9.20
2022-09-24T03:43:47.034Z,9.20
2022-09-24T03:46:17.362Z,9.20
2022-09-24T03:48:47.625Z,9.10
2022-09-24T03:51:20.341Z,9.00
2022-09-24T03:53:49.922Z,9.00
2022-09-24T03:56:18.685Z,9.00
2022-09-24T03:58:48.622Z,9.00
2022-09-24T04:01:21.797Z,8.90
2022-09-24T04:03:51.576Z,9.00
2022-09-24T04:06:25.765Z,9.00
2022-09-24T04:08:55.709Z,9.00
2022-09-24T04:11:25.034Z,9.10
2022-09-24T04:13:54.052Z,9.00
2022-09-24T04:16:23.091Z,9.00
2022-09-24T04:18:51.710Z,9.10
2022-09-24T04:21:21.884Z,9.10
2022-09-24T04:23:50.532Z,9.10
2022-09-24T04:26:19.507Z,9.10
2022-09-24T04:28:49.871Z,9.20
2022-09-24T04:31:18.492Z,9.20
2022-09-24T04:33:47.220Z,9.20
2022-09-24T04:36:15.777Z,9.20
2022-09-24T04:38:46.417Z,9.20
2022-09-24T04:41:16.721Z,9.30
2022-09-24T04:43:46.907Z,9.30
2022-09-24T04:46:16.423Z,9.30
2022-09-24T04:48:45.060Z,9.30
2022-09-24T04:51:13.863Z,9.30
2022-09-24T04:53:42.515Z,9.30
2022-09-24T04:56:12.848Z,9.30
2022-09-24T04:58:41.484Z,9.30
2022-09-24T05:01:10.285Z,9.30
2022-09-24T05:03:39.092Z,9.20
2022-09-24T05:06:07.814Z,9.10
2022-09-24T05:08:36.425Z,9.10
2022-09-24T05:11:05.364Z,9.00
2022-09-24T05:13:36.037Z,8.90
2022-09-24T05:16:05.080Z,8.90
2022-09-24T05:18:33.704Z,8.80
2022-09-24T05:21:02.377Z,8.70
2022-09-24T05:23:31.145Z,8.60
2022-09-24T05:26:16.799Z,8.60
2022-09-24T05:28:46.928Z,8.60
2022-09-24T05:31:15.822Z,8.50
2022-09-24T05:33:44.536Z,8.60
2022-09-24T05:36:13.201Z,8.60
2022-09-24T05:38:42.061Z,8.70
2022-09-24T05:41:10.886Z,8.80
2022-09-24T05:43:39.594Z,8.90
2022-09-24T05:46:09.784Z,9.10
2022-09-24T05:48:38.562Z,9.20
2022-09-24T05:51:07.407Z,9.30
2022-09-24T05:53:35.996Z,9.40
2022-09-24T05:56:04.702Z,9.50
2022-09-24T05:58:33.420Z,9.50
2022-09-24T06:01:02.536Z,9.60
2022-09-24T06:03:32.886Z,9.70
2022-09-24T06:06:02.410Z,9.80
2022-09-24T06:08:32.456Z,9.80
2022-09-24T06:11:02.775Z,9.90
2022-09-24T06:13:31.739Z,9.90
2022-09-24T06:16:03.838Z,9.90
2022-09-24T06:18:35.194Z,9.90
2022-09-24T06:21:05.046Z,9.80
2022-09-24T06:23:33.971Z,9.70
2022-09-24T06:26:02.918Z,9.70
2022-09-24T06:28:31.611Z,9.60
2022-09-24T06:31:01.601Z,9.60
2022-09-24T06:33:30.751Z,9.50
2022-09-24T06:36:03.695Z,9.50
2022-09-24T06:38:33.067Z,9.60
2022-09-24T06:41:03.768Z,9.60
2022-09-24T06:43:32.802Z,9.60
2022-09-24T06:46:03.849Z,9.70
2022-09-24T06:48:33.021Z,9.70
2022-09-24T06:51:06.247Z,9.70
2022-09-24T06:53:35.023Z,9.70
2022-09-24T06:56:04.679Z,9.80
2022-09-24T06:58:34.090Z,10.00
2022-09-24T07:01:03.832Z,10.10
2022-09-24T07:03:34.495Z,10.40
2022-09-24T07:06:06.752Z,10.60
2022-09-24T07:08:36.113Z,10.90
2022-09-24T07:11:05.244Z,11.20
2022-09-24T07:13:33.771Z,11.60
2022-09-24T07:16:02.817Z,11.90
2022-09-24T07:18:31.535Z,12.30
2022-09-24T07:21:00.276Z,12.70
2022-09-24T07:23:30.407Z,13.00
2022-09-24T07:25:59.505Z,13.40
2022-09-24T07:28:28.338Z,13.70
2022-09-24T07:31:01.223Z,14.10
2022-09-24T07:33:32.154Z,14.30
2022-09-24T07:36:00.804Z,14.50
2022-09-24T07:38:31.122Z,14.60
2022-09-24T07:41:00.197Z,14.70
2022-09-24T07:43:29.262Z,14.70
2022-09-24T07:45:58.469Z,14.70
2022-09-24T07:48:27.239Z,14.60
2022-09-24T07:50:56.104Z,14.50
2022-09-24T07:53:24.906Z,14.50
2022-09-24T07:55:56.484Z,14.40
2022-09-24T07:58:25.109Z,14.40
2022-09-24T08:00:53.989Z,14.50
2022-09-24T08:03:23.078Z,14.50
2022-09-24T08:05:52.170Z,14.50
2022-09-24T08:08:20.908Z,14.60
2022-09-24T08:10:49.546Z,14.80
2022-09-24T08:13:23.942Z,14.90
2022-09-24T08:15:59.415Z,15.10
2022-09-24T08:18:29.227Z,15.20
2022-09-24T08:20:57.883Z,15.30
2022-09-24T08:23:27.220Z,15.40
2022-09-24T08:25:56.366Z,15.50
2022-09-24T08:28:26.511Z,15.70
2022-09-24T08:30:59.407Z,15.90
2022-09-24T08:33:28.161Z,16.10
2022-09-24T08:35:56.909Z,16.20
2022-09-24T08:38:25.475Z,16.30
2022-09-24T08:41:01.181Z,16.50
2022-09-24T08:43:42.091Z,16.70
2022-09-24T08:46:35.194Z,17.00
2022-09-24T08:49:06.357Z,17.20
2022-09-24T08:51:41.482Z,17.50
2022-09-24T08:54:14.558Z,17.60
2022-09-24T08:56:46.796Z,17.60
2022-09-24T08:59:27.516Z,17.70
2022-09-24T09:02:07.445Z,17.80
2022-09-24T09:04:49.951Z,17.80
2022-09-24T09:07:22.817Z,18.00
2022-09-24T09:09:55.701Z,18.10
2022-09-24T09:12:29.104Z,18.30
2022-09-24T09:15:03.649Z,18.50
2022-09-24T09:17:42.263Z,18.60
2022-09-24T09:20:17.589Z,18.80
2022-09-24T09:22:49.339Z,19.00
2022-09-24T09:25:22.204Z,19.20
2022-09-24T09:27:53.256Z,19.30
2022-09-24T09:30:23.515Z,19.40
2022-09-24T09:33:21.823Z,19.40
2022-09-24T09:35:59.272Z,19.50
2022-09-24T09:38:40.570Z,19.50
2022-09-24T09:41:19.404Z,19.60
2022-09-24T09:43:48.183Z,19.70
2022-09-24T09:46:35.823Z,19.80
2022-09-24T09:49:08.642Z,19.90
2022-09-24T09:51:41.984Z,20.00
2022-09-24T09:54:11.710Z,20.00
2022-09-24T09:56:51.025Z,20.10
2022-09-24T09:59:27.207Z,20.30
2022-09-24T10:01:59.147Z,20.50
2022-09-24T10:04:37.565Z,20.60
2022-09-24T10:07:08.869Z,20.70
2022-09-24T10:09:38.191Z,20.70
2022-09-24T10:12:16.364Z,20.70
2022-09-24T10:14:45.870Z,20.70
2022-09-24T10:17:19.843Z,20.70
2022-09-24T10:19:50.987Z,20.80
2022-09-24T10:22:23.492Z,21.10
2022-09-24T10:24:52.824Z,21.30
2022-09-24T10:27:36.146Z,21.50
2022-09-24T10:30:42.842Z,21.60
2022-09-24T10:33:12.908Z,21.80
2022-09-24T10:35:41.656Z,21.90
2022-09-24T10:38:19.889Z,22.00
2022-09-24T10:40:49.521Z,22.00
2022-09-24T10:43:20.475Z,22.00
2022-09-24T10:46:13.095Z,22.00
2022-09-24T10:48:46.694Z,22.00
2022-09-24T10:51:29.133Z,22.10
2022-09-24T10:54:11.308Z,22.20
2022-09-24T10:56:46.390Z,22.30
2022-09-24T10:59:39.588Z,22.40
2022-09-24T11:02:53.483Z,22.40
2022-09-24T11:05:25.049Z,22.50
2022-09-24T11:08:12.169Z,22.60
2022-09-24T11:11:10.170Z,22.60
2022-09-24T11:13:51.247Z,22.60
2022-09-24T11:16:39.109Z,22.60
2022-09-24T11:19:19.961Z,22.60
2022-09-24T11:22:10.130Z,22.50
2022-09-24T11:24:53.697Z,22.40
2022-09-24T11:27:46.647Z,22.30
2022-09-24T11:30:17.764Z,22.20
2022-09-24T11:32:57.919Z,22.00
2022-09-24T11:35:48.407Z,21.90
2022-09-24T11:38:27.369Z,21.80
2022-09-24T11:41:11.564Z,21.70
2022-09-24T11:44:02.294Z,21.60
2022-09-24T11:46:49.474Z,21.60
2022-09-24T11:49:34.583Z,21.60
2022-09-24T11:52:10.458Z,21.60
2022-09-24T11:54:46.984Z,21.70
2022-09-24T11:57:23.442Z,21.70
2022-09-24T11:59:57.994Z,21.80
2022-09-24T12:02:31.712Z,21.80
2022-09-24T12:05:06.905Z,21.80
2022-09-24T12:07:40.454Z,21.90
2022-09-24T12:10:26.323Z,22.00
2022-09-24T12:12:59.252Z,22.20
2022-09-24T12:15:44.416Z,22.40
2022-09-24T12:18:18.983Z,22.50
2022-09-24T12:20:52.274Z,22.80
2022-09-24T12:23:27.971Z,22.90
2022-09-24T12:26:00.920Z,23.00
2022-09-24T12:28:54.572Z,23.00
2022-09-24T12:31:48.044Z,23.00
2022-09-24T12:34:24.872Z,22.90
2022-09-24T12:37:00.887Z,22.90
2022-09-24T12:39:34.753Z,23.00
2022-09-24T12:42:08.074Z,23.10
2022-09-24T12:44:45.577Z,23.20
2022-09-24T12:47:21.527Z,23.20
2022-09-24T12:49:55.948Z,23.30
2022-09-24T12:52:28.743Z,23.20
2022-09-24T12:55:02.753Z,23.20
2022-09-24T12:57:37.343Z,23.10
2022-09-24T13:00:27.434Z,23.10
2022-09-24T13:02:56.305Z,23.00
2022-09-24T13:05:30.800Z,23.00
2022-09-24T13:08:02.438Z,23.00
2022-09-24T13:10:32.997Z,23.10
2022-09-24T13:13:04.437Z,23.00
2022-09-24T13:15:35.961Z,23.00
2022-09-24T13:18:22.498Z,23.00
2022-09-24T13:21:03.261Z,23.00
2022-09-24T13:23:46.379Z,23.00
2022-09-24T13:26:28.252Z,23.10
2022-09-24T13:29:00.954Z,23.20
2022-09-24T13:31:42.374Z,23.30
2022-09-24T13:34:19.141Z,23.40
2022-09-24T13:36:54.341Z,23.60
2022-09-24T13:39:26.069Z,23.60
2022-09-24T13:42:04.297Z,23.60
2022-09-24T13:44:37.796Z,23.60
2022-09-24T13:47:15.993Z,23.60
2022-09-24T13:49:49.406Z,23.60
2022-09-24T13:52:28.408Z,23.60
2022-09-24T13:55:01.432Z,23.60
2022-09-24T13:57:31.540Z,23.60
2022-09-24T14:00:21.715Z,23.50
2022-09-24T14:03:02.130Z,23.40
2022-09-24T14:05:32.662Z,23.30
2022-09-24T14:08:06.294Z,23.20
2022-09-24T14:10:36.217Z,22.90
2022-09-24T14:13:15.613Z,22.80
2022-09-24T14:15:57.341Z,22.70
2022-09-24T14:18:27.728Z,22.70
2022-09-24T14:21:00.791Z,22.70
2022-09-24T14:23:33.219Z,22.70
2022-09-24T14:26:02.736Z,22.60
2022-09-24T14:28:33.097Z,22.50
2022-09-24T14:31:03.898Z,22.40
2022-09-24T14:33:34.807Z,22.30
2022-09-24T14:36:04.887Z,22.30
2022-09-24T14:38:36.144Z,22.20
2022-09-24T14:41:09.010Z,22.10
2022-09-24T14:43:44.870Z,22.10
2022-09-24T14:46:21.111Z,22.00
2022-09-24T14:48:51.260Z,22.00
2022-09-24T14:51:28.007Z,21.90
2022-09-24T14:54:01.182Z,21.70
2022-09-24T14:56:31.937Z,21.50
2022-09-24T14:59:01.628Z,21.30
2022-09-24T15:01:34.858Z,21.10
2022-09-24T15:04:05.622Z,20.80
2022-09-24T15:06:36.873Z,20.60
2022-09-24T15:09:07.882Z,20.50
2022-09-24T15:11:43.600Z,20.40
2022-09-24T15:14:25.959Z,20.50
2022-09-24T15:16:57.255Z,20.50
2022-09-24T15:19:28.871Z,20.60
2022-09-24T15:21:58.872Z,20.60
2022-09-24T15:24:27.654Z,20.70
2022-09-24T15:27:03.010Z,20.70
2022-09-24T15:29:31.821Z,20.60
2022-09-24T15:32:02.479Z,20.50
2022-09-24T15:34:31.165Z,20.40
2022-09-24T15:37:00.834Z,20.20
2022-09-24T15:39:30.158Z,20.10
2022-09-24T15:41:59.050Z,19.90
2022-09-24T15:44:33.702Z,19.80
2022-09-24T15:47:04.452Z,19.60
2022-09-24T15:49:33.112Z,19.50
2022-09-24T15:52:07.929Z,19.30
2022-09-24T15:54:37.011Z,19.20
2022-09-24T15:57:05.836Z,19.00
2022-09-24T15:59:34.858Z,18.90
2022-09-24T16:02:16.286Z,18.80
2022-09-24T16:04:45.098Z,18.60
2022-09-24T16:07:14.017Z,18.50
2022-09-24T16:09:46.243Z,18.50
2022-09-24T16:12:16.844Z,18.40
2022-09-24T16:14:45.600Z,18.30
2022-09-24T16:17:15.935Z,18.20
2022-09-24T16:19:44.802Z,18.20
2022-09-24T16:22:16.916Z,18.10
2022-09-24T16:24:48.815Z,18.00
2022-09-24T16:27:17.559Z,17.90
2022-09-24T16:29:46.299Z,17.80
2022-09-24T16:32:16.527Z,17.80
2022-09-24T16:34:45.520Z,17.60
2022-09-24T16:37:16.729Z,17.50
2022-09-24T16:39:45.937Z,17.40
2022-09-24T16:42:14.658Z,17.30
2022-09-24T16:44:43.411Z,17.20
2022-09-24T16:47:16.420Z,17.10
2022-09-24T16:49:47.072Z,17.00
2022-09-24T16:52:15.860Z,17.00
2022-09-24T16:54:44.567Z,16.90
2022-09-24T16:57:13.341Z,16.80
2022-09-24T16:59:41.985Z,16.70
2022-09-24T17:02:13.597Z,16.70
2022-09-24T17:04:42.607Z,16.60
2022-09-24T17:07:13.600Z,16.50
2022-09-24T17:09:59.908Z,16.50
2022-09-24T17:12:28.536Z,16.40
2022-09-24T17:14:57.795Z,16.40
2022-09-24T17:17:26.479Z,16.30
2022-09-24T17:19:55.441Z,16.20
2022-09-24T17:22:25.642Z,16.10
2022-09-24T17:24:54.485Z,16.10
2022-09-24T17:27:23.187Z,16.00
2022-09-24T17:29:52.127Z,16.00
2022-09-24T17:32:20.794Z,15.90
2022-09-24T17:34:50.143Z,15.90
2022-09-24T17:37:19.077Z,15.80
2022-09-24T17:39:49.304Z,15.80
2022-09-24T17:42:17.876Z,15.70
2022-09-24T17:44:46.779Z,15.70
2022-09-24T17:47:15.512Z,15.70
2022-09-24T17:49:44.103Z,15.60
2022-09-24T17:52:13.636Z,15.60
2022-09-24T17:54:42.324Z,15.50
2022-09-24T17:57:12.697Z,15.50
2022-09-24T17:59:42.606Z,15.40
2022-09-24T18:02:11.971Z,15.40
2022-09-24T18:04:40.752Z,15.40
2022-09-24T18:07:09.350Z,15.30
2022-09-24T18:09:38.002Z,15.30
2022-09-24T18:12:06.949Z,15.20
2022-09-24T18:14:38.191Z,15.20
2022-09-24T18:17:06.820Z,15.20
2022-09-24T18:19:36.428Z,15.10
2022-09-24T18:22:06.606Z,15.10
2022-09-24T18:24:35.144Z,15.00
2022-09-24T18:27:03.791Z,15.00
2022-09-24T18:29:32.489Z,15.00
2022-09-24T18:32:02.865Z,14.90
2022-09-24T18:34:31.620Z,14.80
2022-09-24T18:37:00.296Z,14.80
2022-09-24T18:39:28.898Z,14.80
2022-09-24T18:41:57.494Z,14.70
2022-09-24T18:44:26.612Z,14.70
2022-09-24T18:46:55.310Z,14.60
2022-09-24T18:49:25.353Z,14.50
2022-09-24T18:51:53.978Z,14.40
2022-09-24T18:54:24.736Z,14.40
2022-09-24T18:56:53.541Z,14.30
2022-09-24T18:59:22.834Z,14.30
2022-09-24T19:01:52.075Z,14.20
2022-09-24T19:04:21.183Z,14.20
2022-09-24T19:06:51.984Z,14.20
2022-09-24T19:09:21.607Z,14.20
2022-09-24T19:11:50.813Z,14.20
2022-09-24T19:14:19.500Z,14.10
2022-09-24T19:16:48.465Z,14.10
2022-09-24T19:19:17.414Z,14.10
2022-09-24T19:21:47.313Z,14.00
2022-09-24T19:24:17.391Z,13.90
2022-09-24T19:26:46.352Z,13.90
2022-09-24T19:29:15.271Z,13.80
2022-09-24T19:31:45.624Z,13.80
2022-09-24T19:34:15.579Z,13.70
2022-09-24T19:36:45.156Z,13.70
2022-09-24T19:39:18.318Z,13.60
2022-09-24T19:41:47.396Z,13.50
2022-09-24T19:44:17.037Z,13.50
2022-09-24T19:46:46.978Z,13.40
2022-09-24T19:49:15.882Z,13.40
2022-09-24T19:51:44.656Z,13.30
2022-09-24T19:54:13.446Z,13.40
2022-09-24T19:56:43.672Z,13.40
2022-09-24T19:59:13.345Z,13.40
2022-09-24T20:01:42.569Z,13.40
2022-09-24T20:04:11.460Z,13.40
2022-09-24T20:06:40.419Z,13.30
2022-09-24T20:09:09.252Z,13.30
2022-09-24T20:11:38.187Z,13.30
2022-09-24T20:14:10.295Z,13.30
2022-09-24T20:16:40.518Z,13.30
2022-09-24T20:19:09.383Z,13.30
2022-09-24T20:21:38.627Z,13.30
2022-09-24T20:24:09.895Z,13.30
2022-09-24T20:26:56.254Z,13.30
2022-09-24T20:29:26.353Z,13.30
2022-09-24T20:31:56.739Z,13.30
2022-09-24T20:34:28.757Z,13.30
2022-09-24T20:36:58.551Z,13.30
2022-09-24T20:39:27.243Z,13.40
2022-09-24T20:41:56.031Z,13.40
2022-09-24T20:44:26.263Z,13.40
2022-09-24T20:46:54.821Z,13.40
2022-09-24T20:49:24.473Z,13.40
2022-09-24T20:51:56.968Z,13.40
2022-09-24T20:54:26.577Z,13.40
2022-09-24T20:56:56.020Z,13.40
2022-09-24T20:59:27.264Z,13.40
2022-09-24T21:01:56.337Z,13.40
2022-09-24T21:04:25.522Z,13.30
2022-09-24T21:06:54.798Z,13.40
2022-09-24T21:09:23.613Z,13.30
2022-09-24T21:11:53.268Z,13.30
2022-09-24T21:14:23.079Z,13.30
2022-09-24T21:16:55.285Z,13.30
2022-09-24T21:19:24.983Z,13.20
2022-09-24T21:21:54.035Z,13.20
2022-09-24T21:24:26.339Z,13.30
2022-09-24T21:27:00.286Z,13.20
2022-09-24T21:29:29.008Z,13.30
2022-09-24T21:31:59.196Z,13.30
2022-09-24T21:34:29.202Z,13.30
2022-09-24T21:36:57.921Z,13.20
2022-09-24T21:39:29.017Z,13.20
2022-09-24T21:41:59.859Z,13.20
2022-09-24T21:44:29.773Z,13.20
2022-09-24T21:46:59.993Z,13.20
2022-09-24T21:49:28.760Z,13.20
2022-09-24T21:51:57.777Z,13.20
2022-09-24T21:54:26.428Z,13.20
2022-09-24T21:56:55.391Z,13.10
2022-09-24T21:59:41.596Z,13.10
2022-09-24T22:02:12.382Z,13.20
2022-09-24T22:04:41.076Z,13.10
2022-09-24T22:07:09.834Z,13.10
2022-09-24T22:09:39.222Z,13.10
2022-09-24T22:12:07.965Z,13.10
2022-09-24T22:14:37.432Z,13.10
2022-09-24T22:17:07.585Z,13.10
2022-09-24T22:19:37.673Z,13.10
2022-09-24T22:22:06.173Z,13.10
2022-09-24T22:24:34.736Z,13.00
2022-09-24T22:27:03.413Z,13.10
2022-09-24T22:29:32.174Z,13.10
2022-09-24T22:32:00.804Z,13.10
2022-09-24T22:34:46.887Z,13.10
2022-09-24T22:37:16.959Z,13.10
2022-09-24T22:39:45.687Z,13.10
2022-09-24T22:42:15.018Z,13.10
2022-09-24T22:44:43.560Z,13.20
2022-09-24T22:47:12.176Z,13.20
2022-09-24T22:49:40.716Z,13.20
2022-09-24T22:52:09.343Z,13.20
2022-09-24T22:54:39.617Z,13.20
2022-09-24T22:57:08.336Z,13.20
2022-09-24T22:59:37.044Z,13.20
2022-09-24T23:02:08.278Z,13.20
2022-09-24T23:04:42.014Z,13.30
2022-09-24T23:07:10.701Z,13.20
2022-09-24T23:09:40.706Z,13.30
2022-09-24T23:12:09.436Z,13.20
2022-09-24T23:14:38.277Z,13.20
2022-09-24T23:17:07.625Z,13.20
2022-09-24T23:19:49.534Z,13.30
2022-09-24T23:22:19.365Z,13.20
2022-09-24T23:24:50.769Z,13.20
2022-09-24T23:27:20.449Z,13.20
2022-09-24T23:29:49.233Z,13.20
2022-09-24T23:32:18.124Z,13.20
2022-09-24T23:34:47.608Z,13.20
2022-09-24T23:37:16.440Z,13.20
2022-09-24T23:39:45.123Z,13.20
2022-09-24T23:42:15.437Z,13.20
2022-09-24T23:44:45.484Z,13.20
2022-09-24T23:47:14.139Z,13.20
2022-09-24T23:49:42.651Z,13.10
2022-09-24T23:52:11.235Z,13.10
2022-09-24T23:54:40.487Z,13.00
2022-09-24T23:57:11.502Z,13.00
2022-09-24T23:59:41.623Z,13.00
